Time;durP1;ratioP1;P1;durP2;ratioP2;P2;SDS_P1;SDS_P2;PMS_P1;PMS_P2;Temp;Humidity;BMP_temperature;BMP_pressure;BME280_temperature;BME280_humidity;BME280_pressure;Samples;Min_cycle;Max_cycle;Signal;HPM_P1;HPM_P2
2024/03/18 00:02:22;;;;;;;20.00;9.40;;;;;;;;;;109634;1249;60696;-76
2024/03/18 00:04:48;;;;;;;19.70;9.30;;;;;;;;;;109637;1250;59744;-76
2024/03/18 00:07:14;;;;;;;19.70;10.30;;;;;;;;;;109627;1249;59702;-77
2024/03/18 00:09:40;;;;;;;22.70;9.90;;;;;;;;;;109641;1249;59730;-76
2024/03/18 00:12:07;;;;;;;17.70;8.60;;;;;;;;;;109656;1249;59665;-76
2024/03/18 00:14:33;;;;;;;17.50;8.50;;;;;;;;;;109647;1249;59932;-77
2024/03/18 00:16:59;;;;;;;15.20;8.20;;;;;;;;;;109636;1249;59749;-76
2024/03/18 00:19:25;;;;;;;23.70;11.90;;;;;;;;;;107027;1250;62131;-76
2024/03/18 00:21:53;;;;;;;20.20;8.40;;;;;;;;;;106558;1250;62157;-77
2024/03/18 00:24:19;;;;;;;15.00;8.70;;;;;;;;;;106524;1249;62007;-76
2024/03/18 00:26:46;;;;;;;17.80;9.40;;;;;;;;;;106553;1250;62123;-78
2024/03/18 00:29:12;;;;;;;23.40;9.90;;;;;;;;;;106589;1254;62122;-79
2024/03/18 00:31:38;;;;;;;15.00;8.80;;;;;;;;;;106575;1249;64232;-77
2024/03/18 00:34:05;;;;;;;19.90;9.50;;;;;;;;;;106657;1251;62102;-78
2024/03/18 00:36:31;;;;;;;22.70;10.00;;;;;;;;;;106658;1250;62167;-78
2024/03/18 00:38:57;;;;;;;18.10;9.90;;;;;;;;;;106672;1250;64250;-80
2024/03/18 00:44:09;;;;;;;22.40;10.50;;;;;;;;;;106591;1250;61988;-77
2024/03/18 00:46:36;;;;;;;21.10;9.80;;;;;;;;;;106573;1253;62128;-76
2024/03/18 00:49:03;;;;;;;21.20;10.70;;;;;;;;;;106564;1253;61990;-78
2024/03/18 00:51:31;;;;;;;17.80;9.60;;;;;;;;;;106564;1249;62038;-76
2024/03/18 00:53:58;;;;;;;16.10;8.10;;;;;;;;;;106540;1254;60626;-76
2024/03/18 00:56:24;;;;;;;14.70;7.20;;;;;;;;;;106596;1250;62120;-77
2024/03/18 00:58:50;;;;;;;14.20;8.30;;;;;;;;;;106603;1250;62332;-77
2024/03/18 01:01:18;;;;;;;9.60;5.90;;;;;;;;;;106617;1250;62084;-77
2024/03/18 01:03:44;;;;;;;11.20;5.60;;;;;;;;;;106560;1250;62103;-78
2024/03/18 01:06:10;;;;;;;9.90;4.70;;;;;;;;;;106564;1254;62026;-77
2024/03/18 01:08:37;;;;;;;9.10;4.50;;;;;;;;;;106583;1254;62068;-77
2024/03/18 01:11:03;;;;;;;7.10;4.20;;;;;;;;;;106585;1250;62144;-77
2024/03/18 01:13:34;;;;;;;6.80;3.80;;;;;;;;;;106542;1250;62116;-76
2024/03/18 01:16:01;;;;;;;6.10;3.90;;;;;;;;;;106589;1251;62148;-76
2024/03/18 01:18:27;;;;;;;9.10;4.40;;;;;;;;;;106705;1253;62061;-78
2024/03/18 01:20:54;;;;;;;9.10;3.70;;;;;;;;;;106665;1250;62074;-77
2024/03/18 01:23:22;;;;;;;7.40;3.50;;;;;;;;;;109673;1249;61563;-77
2024/03/18 01:25:48;;;;;;;5.30;3.20;;;;;;;;;;109620;1250;59960;-78
2024/03/18 01:28:14;;;;;;;9.60;4.00;;;;;;;;;;109639;1249;60079;-78
2024/03/18 01:30:43;;;;;;;5.60;2.90;;;;;;;;;;109660;1249;59770;-78
2024/03/18 01:33:09;;;;;;;9.80;3.30;;;;;;;;;;109674;1249;59591;-78
2024/03/18 01:35:36;;;;;;;4.10;2.30;;;;;;;;;;108877;1249;59699;-78
2024/03/18 01:38:05;;;;;;;7.10;3.10;;;;;;;;;;106618;1250;63180;-78
2024/03/18 01:40:33;;;;;;;6.30;2.60;;;;;;;;;;106614;1250;62036;-77
2024/03/18 01:42:59;;;;;;;5.20;3.00;;;;;;;;;;106567;1251;62080;-78
2024/03/18 01:45:25;;;;;;;4.90;2.80;;;;;;;;;;106777;1250;62003;-78
2024/03/18 01:47:51;;;;;;;6.90;3.60;;;;;;;;;;109611;1249;59634;-77
2024/03/18 01:50:18;;;;;;;5.20;2.60;;;;;;;;;;108650;1249;62012;-77
2024/03/18 01:52:45;;;;;;;5.70;2.30;;;;;;;;;;109613;1249;59698;-77
2024/03/18 01:55:12;;;;;;;5.00;2.60;;;;;;;;;;109685;1250;59852;-77
2024/03/18 01:57:38;;;;;;;4.20;2.30;;;;;;;;;;109664;1249;59666;-78
2024/03/18 02:00:15;;;;;;;7.50;2.70;;;;;;;;;;109627;1249;61524;-77
2024/03/18 02:02:41;;;;;;;5.00;2.60;;;;;;;;;;109646;1249;59626;-77
2024/03/18 02:05:09;;;;;;;5.30;2.80;;;;;;;;;;109608;1250;59905;-77
2024/03/18 02:07:36;;;;;;;6.70;2.90;;;;;;;;;;109645;1249;59629;-77
2024/03/18 02:10:04;;;;;;;3.80;2.30;;;;;;;;;;109654;1251;59815;-78
2024/03/18 02:12:32;;;;;;;3.80;2.00;;;;;;;;;;109624;1250;61506;-78
2024/03/18 02:14:59;;;;;;;5.60;2.30;;;;;;;;;;109642;1249;59919;-78
2024/03/18 02:17:25;;;;;;;7.70;3.10;;;;;;;;;;109635;1249;59766;-77
2024/03/18 02:19:51;;;;;;;5.90;3.20;;;;;;;;;;109629;1250;59620;-78
2024/03/18 02:22:18;;;;;;;6.40;3.40;;;;;;;;;;109649;1250;60021;-77
2024/03/18 02:24:44;;;;;;;8.00;3.40;;;;;;;;;;109669;1250;60228;-78
2024/03/18 02:27:11;;;;;;;8.00;3.40;;;;;;;;;;109668;1249;59867;-77
2024/03/18 02:29:37;;;;;;;6.00;3.50;;;;;;;;;;109639;1250;59918;-77
2024/03/18 02:32:04;;;;;;;5.60;2.90;;;;;;;;;;108580;1250;62804;-78
2024/03/18 02:34:31;;;;;;;4.70;2.90;;;;;;;;;;106611;1250;61938;-77
2024/03/18 02:36:57;;;;;;;4.80;2.50;;;;;;;;;;106582;1250;62069;-77
2024/03/18 02:39:24;;;;;;;6.00;2.60;;;;;;;;;;106550;1250;62127;-78
2024/03/18 02:41:51;;;;;;;4.50;2.70;;;;;;;;;;106642;1251;60469;-78
2024/03/18 02:44:17;;;;;;;3.90;2.70;;;;;;;;;;106606;1251;62115;-78
2024/03/18 02:46:44;;;;;;;5.00;2.80;;;;;;;;;;106564;1250;62072;-77
2024/03/18 02:49:10;;;;;;;6.00;2.70;;;;;;;;;;106606;1250;62072;-78
2024/03/18 02:51:36;;;;;;;5.30;2.70;;;;;;;;;;106602;1250;62159;-78
2024/03/18 02:54:03;;;;;;;4.30;2.30;;;;;;;;;;106562;1250;62576;-77
2024/03/18 02:56:30;;;;;;;6.10;3.40;;;;;;;;;;106576;1251;62676;-78
2024/03/18 02:58:56;;;;;;;2.60;2.00;;;;;;;;;;106530;1255;62816;-77
2024/03/18 03:01:22;;;;;;;3.50;2.30;;;;;;;;;;106584;1250;62551;-77
2024/03/18 03:03:51;;;;;;;4.60;2.90;;;;;;;;;;106591;1250;62086;-77
2024/03/18 03:06:18;;;;;;;4.20;2.70;;;;;;;;;;106559;1250;62130;-77
2024/03/18 03:08:45;;;;;;;4.70;2.20;;;;;;;;;;106541;1253;62065;-78
2024/03/18 03:11:12;;;;;;;3.50;2.30;;;;;;;;;;106626;1251;60201;-78
2024/03/18 03:13:38;;;;;;;3.60;1.80;;;;;;;;;;106635;1250;62507;-77
2024/03/18 03:16:11;;;;;;;7.50;2.50;;;;;;;;;;106560;1253;63249;-77
2024/03/18 03:18:37;;;;;;;3.30;2.10;;;;;;;;;;106644;1253;62099;-77
2024/03/18 03:21:07;;;;;;;5.40;2.50;;;;;;;;;;106567;1253;62061;-77
2024/03/18 03:23:33;;;;;;;6.50;3.90;;;;;;;;;;106633;1250;62006;-78
2024/03/18 03:25:59;;;;;;;4.50;2.70;;;;;;;;;;106580;1250;62115;-77
2024/03/18 03:28:26;;;;;;;5.90;4.00;;;;;;;;;;106563;1250;62154;-77
2024/03/18 03:31:18;;;;;;;10.40;4.80;;;;;;;;;;106540;1251;62172;-78
2024/03/18 03:33:45;;;;;;;4.30;2.50;;;;;;;;;;106556;1250;62156;-77
2024/03/18 03:36:11;;;;;;;4.20;2.70;;;;;;;;;;106614;1251;62103;-76
2024/03/18 03:38:38;;;;;;;6.40;2.40;;;;;;;;;;109659;1250;60198;-77
2024/03/18 03:41:04;;;;;;;4.30;2.60;;;;;;;;;;107120;1250;61985;-79
2024/03/18 03:43:30;;;;;;;6.20;3.40;;;;;;;;;;106552;1250;62019;-77
2024/03/18 03:46:01;;;;;;;4.30;2.50;;;;;;;;;;106591;1253;63222;-78
2024/03/18 03:48:28;;;;;;;5.30;3.80;;;;;;;;;;106575;1253;62063;-78
2024/03/18 03:50:55;;;;;;;4.40;2.60;;;;;;;;;;106621;1255;63771;-77
2024/03/18 03:53:22;;;;;;;4.60;2.80;;;;;;;;;;106574;1251;61956;-77
2024/03/18 03:55:52;;;;;;;5.00;2.80;;;;;;;;;;106544;1250;62173;-77
2024/03/18 03:58:18;;;;;;;4.10;2.30;;;;;;;;;;106581;1250;62177;-79
2024/03/18 04:00:45;;;;;;;5.40;2.70;;;;;;;;;;106615;1254;62021;-77
2024/03/18 04:03:15;;;;;;;4.70;3.00;;;;;;;;;;106622;1254;62074;-78
2024/03/18 04:05:41;;;;;;;4.80;2.90;;;;;;;;;;106636;1255;62123;-77
2024/03/18 04:08:07;;;;;;;5.10;2.30;;;;;;;;;;106588;1251;62036;-78
2024/03/18 04:10:33;;;;;;;5.40;3.00;;;;;;;;;;106553;1254;62122;-78
2024/03/18 04:13:00;;;;;;;6.40;3.40;;;;;;;;;;106562;1254;62158;-78
2024/03/18 04:15:28;;;;;;;5.00;3.20;;;;;;;;;;106532;1250;62002;-77
2024/03/18 04:17:54;;;;;;;6.80;4.10;;;;;;;;;;106559;1250;62078;-78
2024/03/18 04:20:24;;;;;;;5.90;3.50;;;;;;;;;;106532;1250;63030;-76
2024/03/18 04:22:51;;;;;;;13.40;4.00;;;;;;;;;;106584;1251;62048;-77
2024/03/18 04:25:18;;;;;;;8.30;3.90;;;;;;;;;;106588;1250;62032;-78
2024/03/18 04:27:45;;;;;;;6.30;3.00;;;;;;;;;;106580;1254;62665;-78
2024/03/18 04:30:17;;;;;;;6.80;3.90;;;;;;;;;;106590;1256;62083;-77
2024/03/18 04:32:44;;;;;;;5.10;2.80;;;;;;;;;;106600;1250;62124;-78
2024/03/18 04:35:11;;;;;;;5.20;2.80;;;;;;;;;;106572;1251;61927;-77
2024/03/18 04:37:46;;;;;;;6.10;3.10;;;;;;;;;;108209;1250;61964;-78
2024/03/18 04:40:13;;;;;;;7.40;3.40;;;;;;;;;;109678;1250;62243;-77
2024/03/18 04:42:39;;;;;;;4.50;3.00;;;;;;;;;;109669;1250;60059;-78
2024/03/18 04:45:06;;;;;;;5.90;3.50;;;;;;;;;;109661;1250;60326;-78
2024/03/18 04:47:38;;;;;;;7.90;3.50;;;;;;;;;;109634;1249;59689;-78
2024/03/18 04:50:10;;;;;;;9.10;3.60;;;;;;;;;;109658;1249;59881;-78
2024/03/18 04:52:36;;;;;;;6.60;4.50;;;;;;;;;;109659;1250;64298;-78
2024/03/18 04:55:03;;;;;;;8.90;4.70;;;;;;;;;;109666;1250;60099;-78
2024/03/18 04:57:29;;;;;;;10.90;4.40;;;;;;;;;;109615;1250;60645;-78
2024/03/18 04:59:56;;;;;;;11.00;4.90;;;;;;;;;;109634;1250;59867;-78
2024/03/18 05:02:22;;;;;;;8.70;4.80;;;;;;;;;;109584;1250;59781;-77
2024/03/18 05:04:48;;;;;;;22.80;7.10;;;;;;;;;;109673;1250;59979;-78
2024/03/18 05:07:15;;;;;;;9.30;6.10;;;;;;;;;;109639;1250;60118;-78
2024/03/18 05:09:44;;;;;;;9.10;5.00;;;;;;;;;;109648;1250;59632;-78
2024/03/18 05:12:11;;;;;;;11.50;6.50;;;;;;;;;;109627;1250;59701;-78
2024/03/18 05:14:37;;;;;;;10.70;6.00;;;;;;;;;;109655;1250;59677;-78
2024/03/18 05:17:04;;;;;;;12.10;7.30;;;;;;;;;;109641;1250;61592;-77
2024/03/18 05:19:30;;;;;;;10.70;5.30;;;;;;;;;;109671;1250;59835;-77
2024/03/18 05:21:57;;;;;;;9.20;5.60;;;;;;;;;;109630;1249;59745;-77
2024/03/18 05:24:23;;;;;;;12.70;6.00;;;;;;;;;;109624;1250;59948;-78
2024/03/18 05:26:49;;;;;;;10.40;5.20;;;;;;;;;;109668;1254;59637;-77
2024/03/18 05:29:16;;;;;;;13.50;4.90;;;;;;;;;;109638;1250;59914;-78
2024/03/18 05:31:43;;;;;;;9.20;4.80;;;;;;;;;;109650;1250;59945;-77
2024/03/18 05:34:09;;;;;;;9.90;5.10;;;;;;;;;;109638;1250;59820;-77
2024/03/18 05:36:36;;;;;;;8.40;5.00;;;;;;;;;;109478;1250;62067;-78
2024/03/18 05:39:03;;;;;;;11.00;6.00;;;;;;;;;;106558;1254;62131;-78
2024/03/18 05:41:29;;;;;;;8.80;4.90;;;;;;;;;;106579;1250;62064;-77
2024/03/18 05:43:55;;;;;;;10.60;6.20;;;;;;;;;;106590;1250;62046;-76
2024/03/18 05:46:22;;;;;;;9.50;6.20;;;;;;;;;;106566;1250;62150;-77
2024/03/18 05:48:49;;;;;;;9.00;5.40;;;;;;;;;;106585;1250;62057;-77
2024/03/18 05:51:15;;;;;;;18.60;7.20;;;;;;;;;;106681;1250;62062;-79
2024/03/18 05:53:41;;;;;;;16.60;7.10;;;;;;;;;;106657;1250;62061;-79
2024/03/18 05:56:08;;;;;;;15.40;7.20;;;;;;;;;;106656;1250;62159;-77
2024/03/18 05:58:40;;;;;;;20.40;8.00;;;;;;;;;;106606;1250;62051;-77
2024/03/18 06:01:10;;;;;;;34.40;12.10;;;;;;;;;;106668;1251;62071;-78
2024/03/18 06:03:37;;;;;;;27.50;11.40;;;;;;;;;;106612;1250;62174;-77
2024/03/18 06:06:07;;;;;;;24.20;9.60;;;;;;;;;;106666;1250;62680;-77
2024/03/18 06:08:33;;;;;;;14.20;7.50;;;;;;;;;;106644;1256;62256;-77
2024/03/18 06:11:00;;;;;;;14.50;7.50;;;;;;;;;;106447;1250;201025;-77
2024/03/18 06:13:26;;;;;;;12.10;7.40;;;;;;;;;;106567;1251;62046;-77
2024/03/18 06:15:53;;;;;;;20.10;10.00;;;;;;;;;;106566;1253;63008;-78
2024/03/18 06:18:19;;;;;;;24.80;10.70;;;;;;;;;;106772;1253;62149;-78
2024/03/18 06:20:49;;;;;;;19.10;8.90;;;;;;;;;;106714;1250;62060;-77
2024/03/18 06:23:16;;;;;;;20.70;9.10;;;;;;;;;;109612;1248;59625;-78
2024/03/18 06:25:58;;;;;;;14.90;8.50;;;;;;;;;;109846;1248;59697;-78
2024/03/18 06:28:24;;;;;;;16.30;7.70;;;;;;;;;;109763;1249;59995;-78
2024/03/18 06:30:51;;;;;;;16.10;8.50;;;;;;;;;;109649;1249;63921;-78
2024/03/18 06:33:17;;;;;;;13.50;7.70;;;;;;;;;;109614;1250;59676;-78
2024/03/18 06:35:45;;;;;;;16.80;8.90;;;;;;;;;;109663;1249;60073;-78
2024/03/18 06:38:12;;;;;;;13.30;7.60;;;;;;;;;;109650;1250;59682;-78
2024/03/18 06:40:39;;;;;;;17.90;8.40;;;;;;;;;;109662;1249;59735;-77
2024/03/18 06:43:05;;;;;;;12.80;7.50;;;;;;;;;;109655;1249;62716;-78
2024/03/18 06:45:33;;;;;;;18.40;8.50;;;;;;;;;;109668;1250;59676;-77
2024/03/18 06:48:03;;;;;;;14.10;6.80;;;;;;;;;;109623;1250;59991;-78
2024/03/18 06:50:30;;;;;;;18.40;8.30;;;;;;;;;;109655;1250;59726;-78
2024/03/18 06:52:57;;;;;;;11.90;6.30;;;;;;;;;;109646;1253;59799;-78
2024/03/18 06:55:23;;;;;;;11.70;7.10;;;;;;;;;;106947;1250;63170;-78
2024/03/18 06:57:49;;;;;;;10.70;6.50;;;;;;;;;;106524;1255;62150;-76
2024/03/18 07:00:19;;;;;;;13.10;7.20;;;;;;;;;;106707;1250;62099;-77
2024/03/18 07:02:49;;;;;;;13.90;7.70;;;;;;;;;;108474;1250;59818;-77
2024/03/18 07:05:16;;;;;;;16.20;8.30;;;;;;;;;;109548;1250;59895;-76
2024/03/18 07:07:42;;;;;;;14.50;8.30;;;;;;;;;;109643;1250;62685;-76
2024/03/18 07:10:09;;;;;;;15.10;8.00;;;;;;;;;;108448;1251;62061;-75
2024/03/18 07:12:35;;;;;;;14.20;8.10;;;;;;;;;;106700;1250;62073;-76
2024/03/18 07:15:02;;;;;;;13.00;7.10;;;;;;;;;;106829;1249;62114;-76
2024/03/18 07:17:28;;;;;;;11.80;7.00;;;;;;;;;;106884;1253;62182;-78
2024/03/18 07:19:54;;;;;;;12.70;6.80;;;;;;;;;;106672;1249;62095;-78
2024/03/18 07:22:21;;;;;;;10.80;6.40;;;;;;;;;;106672;1256;62061;-78
2024/03/18 07:24:47;;;;;;;15.30;7.20;;;;;;;;;;106592;1250;62076;-79
2024/03/18 07:27:13;;;;;;;12.90;7.30;;;;;;;;;;106632;1251;62239;-79
2024/03/18 07:29:40;;;;;;;12.40;7.80;;;;;;;;;;106664;1251;62129;-77
2024/03/18 07:32:07;;;;;;;11.40;6.90;;;;;;;;;;106673;1253;62039;-77
2024/03/18 07:34:35;;;;;;;12.50;7.20;;;;;;;;;;106675;1254;63176;-79
2024/03/18 07:37:01;;;;;;;19.80;8.00;;;;;;;;;;106632;1250;62468;-78
2024/03/18 07:39:27;;;;;;;14.40;9.40;;;;;;;;;;106640;1253;62790;-78
2024/03/18 07:41:55;;;;;;;14.20;7.50;;;;;;;;;;106653;1254;62394;-79
2024/03/18 07:44:22;;;;;;;16.50;9.30;;;;;;;;;;106610;1256;62829;-79
2024/03/18 07:46:48;;;;;;;15.00;9.40;;;;;;;;;;106789;1253;61961;-79
2024/03/18 07:49:16;;;;;;;25.00;14.40;;;;;;;;;;106768;1251;62381;-78
2024/03/18 07:51:42;;;;;;;17.50;9.40;;;;;;;;;;106731;1250;61961;-78
2024/03/18 07:54:09;;;;;;;30.50;20.50;;;;;;;;;;106748;1253;62108;-78
2024/03/18 07:56:35;;;;;;;29.20;21.60;;;;;;;;;;106741;1256;62098;-78
2024/03/18 07:59:02;;;;;;;20.20;10.40;;;;;;;;;;106810;1254;62074;-77
2024/03/18 08:01:28;;;;;;;12.40;7.50;;;;;;;;;;106750;1256;62074;-77
2024/03/18 08:03:55;;;;;;;11.30;6.70;;;;;;;;;;106804;1255;61960;-78
2024/03/18 08:06:21;;;;;;;15.60;8.00;;;;;;;;;;106739;1253;62222;-77
2024/03/18 08:08:49;;;;;;;14.00;7.20;;;;;;;;;;109588;1250;59946;-77
2024/03/18 08:11:15;;;;;;;11.30;7.60;;;;;;;;;;109627;1248;59853;-77
2024/03/18 08:13:41;;;;;;;12.90;7.50;;;;;;;;;;109640;1248;59997;-77
2024/03/18 08:16:07;;;;;;;13.20;6.20;;;;;;;;;;109643;1248;59776;-77
2024/03/18 08:18:34;;;;;;;13.90;6.70;;;;;;;;;;109637;1253;59907;-77
2024/03/18 08:21:00;;;;;;;16.70;7.80;;;;;;;;;;109654;1250;59831;-79
2024/03/18 08:23:26;;;;;;;12.80;7.20;;;;;;;;;;109631;1251;59645;-77
2024/03/18 08:25:52;;;;;;;11.80;6.10;;;;;;;;;;109617;1250;59767;-78
2024/03/18 08:28:19;;;;;;;9.90;5.90;;;;;;;;;;109503;1251;59615;-78
2024/03/18 08:30:46;;;;;;;9.10;6.20;;;;;;;;;;109565;1250;59826;-78
2024/03/18 08:33:12;;;;;;;8.70;5.40;;;;;;;;;;109561;1250;59933;-77
2024/03/18 08:35:38;;;;;;;7.40;4.20;;;;;;;;;;109619;1251;60121;-78
2024/03/18 08:38:05;;;;;;;6.80;3.80;;;;;;;;;;109618;1250;59719;-78
2024/03/18 08:40:31;;;;;;;7.60;4.40;;;;;;;;;;109527;1248;59698;-78
2024/03/18 08:42:57;;;;;;;7.50;3.80;;;;;;;;;;109595;1253;59767;-77
2024/03/18 08:45:23;;;;;;;7.00;4.30;;;;;;;;;;109593;1250;59804;-78
2024/03/18 08:47:50;;;;;;;5.90;4.60;;;;;;;;;;109596;1253;59711;-77
2024/03/18 08:50:16;;;;;;;4.80;3.50;;;;;;;;;;109538;1253;60097;-77
2024/03/18 08:52:42;;;;;;;6.00;4.50;;;;;;;;;;109561;1250;60996;-77
2024/03/18 08:55:09;;;;;;;6.10;4.50;;;;;;;;;;109604;1250;60001;-76
2024/03/18 08:57:35;;;;;;;5.60;4.90;;;;;;;;;;109586;1250;59689;-77
2024/03/18 09:00:03;;;;;;;9.30;4.90;;;;;;;;;;109615;1251;59739;-77
2024/03/18 09:02:30;;;;;;;9.20;5.40;;;;;;;;;;109553;1250;59787;-76
2024/03/18 09:04:56;;;;;;;9.70;5.30;;;;;;;;;;109663;1250;60462;-77
2024/03/18 09:07:22;;;;;;;8.10;5.10;;;;;;;;;;109615;1250;60204;-75
2024/03/18 09:09:49;;;;;;;6.90;4.20;;;;;;;;;;109585;1250;59940;-77
2024/03/18 09:12:15;;;;;;;9.70;4.70;;;;;;;;;;109562;1253;59809;-76
2024/03/18 09:14:41;;;;;;;14.80;7.40;;;;;;;;;;109570;1254;59917;-76
2024/03/18 09:17:08;;;;;;;8.40;4.20;;;;;;;;;;109549;1248;59853;-75
2024/03/18 09:19:40;;;;;;;6.60;4.00;;;;;;;;;;109633;1253;59824;-75
2024/03/18 09:22:08;;;;;;;6.80;4.00;;;;;;;;;;109557;1249;61830;-75
2024/03/18 09:24:35;;;;;;;6.10;4.50;;;;;;;;;;109563;1250;59708;-79
2024/03/18 09:27:06;;;;;;;9.10;5.10;;;;;;;;;;109648;1251;60009;-79
2024/03/18 09:29:32;;;;;;;6.40;4.00;;;;;;;;;;109600;1250;59885;-76
2024/03/18 09:31:59;;;;;;;8.80;4.40;;;;;;;;;;109542;1254;60155;-76
2024/03/18 09:34:25;;;;;;;21.80;9.90;;;;;;;;;;109581;1250;59974;-75
2024/03/18 09:36:52;;;;;;;11.70;5.90;;;;;;;;;;109566;1251;60023;-75
2024/03/18 09:39:18;;;;;;;7.10;4.20;;;;;;;;;;109593;1254;59790;-76
2024/03/18 09:41:45;;;;;;;7.90;4.40;;;;;;;;;;109583;1250;59659;-77
2024/03/18 09:44:12;;;;;;;10.10;5.20;;;;;;;;;;109551;1251;59772;-76
2024/03/18 09:46:38;;;;;;;19.20;5.00;;;;;;;;;;109578;1251;63045;-76
2024/03/18 09:49:06;;;;;;;6.80;3.60;;;;;;;;;;109714;1250;59658;-76
2024/03/18 09:51:35;;;;;;;6.60;3.50;;;;;;;;;;109629;1251;59953;-75
2024/03/18 09:54:02;;;;;;;9.20;4.40;;;;;;;;;;108657;1251;59925;-79
2024/03/18 09:56:28;;;;;;;5.90;3.60;;;;;;;;;;106936;1252;61983;-78
2024/03/18 09:58:54;;;;;;;6.10;4.40;;;;;;;;;;106976;1254;62117;-78
2024/03/18 10:01:21;;;;;;;6.90;4.20;;;;;;;;;;108631;1251;61957;-78
2024/03/18 10:03:49;;;;;;;6.70;3.90;;;;;;;;;;109567;1251;59706;-78
2024/03/18 10:06:17;;;;;;;8.90;4.60;;;;;;;;;;109564;1253;59692;-78
2024/03/18 10:08:44;;;;;;;6.50;4.80;;;;;;;;;;109533;1251;59794;-78
2024/03/18 10:11:13;;;;;;;5.70;3.90;;;;;;;;;;109453;1251;59690;-76
2024/03/18 10:13:40;;;;;;;14.20;10.00;;;;;;;;;;109606;1253;59917;-76
2024/03/18 10:16:07;;;;;;;10.50;5.80;;;;;;;;;;109628;1250;59732;-75
2024/03/18 10:18:34;;;;;;;8.30;4.30;;;;;;;;;;109575;1251;60003;-77
2024/03/18 10:21:02;;;;;;;6.00;4.20;;;;;;;;;;109575;1248;60906;-75
2024/03/18 10:23:28;;;;;;;8.80;4.80;;;;;;;;;;109579;1254;62667;-76
2024/03/18 10:25:55;;;;;;;5.10;3.20;;;;;;;;;;109623;1250;60429;-76
2024/03/18 10:28:21;;;;;;;7.90;4.20;;;;;;;;;;109496;1251;60059;-77
2024/03/18 10:30:47;;;;;;;8.40;4.60;;;;;;;;;;109582;1251;59916;-75
2024/03/18 10:33:16;;;;;;;13.60;6.80;;;;;;;;;;109581;1251;59773;-75
2024/03/18 10:35:43;;;;;;;;;;;;;;;;;;107226;1254;62060;-77
2024/03/18 10:38:11;;;;;;;12.30;6.20;;;;;;;;;;106902;1249;62500;-78
2024/03/18 10:40:40;;;;;;;7.60;4.10;;;;;;;;;;106840;1257;62141;-79
2024/03/18 10:43:10;;;;;;;5.70;3.50;;;;;;;;;;109478;1251;59772;-78
2024/03/18 10:45:37;;;;;;;6.40;4.00;;;;;;;;;;109558;1251;59645;-78
2024/03/18 10:48:04;;;;;;;9.80;6.00;;;;;;;;;;109311;1251;61729;-78
2024/03/18 10:50:31;;;;;;;9.80;5.00;;;;;;;;;;106837;1254;62044;-77
2024/03/18 10:52:57;;;;;;;9.90;5.50;;;;;;;;;;106748;1254;59997;-78
2024/03/18 10:55:23;;;;;;;6.20;4.00;;;;;;;;;;106839;1254;62070;-78
2024/03/18 10:57:50;;;;;;;7.00;3.50;;;;;;;;;;106771;1249;61988;-78
2024/03/18 11:00:18;;;;;;;6.70;3.80;;;;;;;;;;106753;1251;62090;-76
2024/03/18 11:02:51;;;;;;;5.50;3.80;;;;;;;;;;106700;1254;61921;-78
2024/03/18 11:05:21;;;;;;;6.90;5.30;;;;;;;;;;106693;1253;62041;-76
2024/03/18 11:07:48;;;;;;;8.60;5.00;;;;;;;;;;106784;1256;62765;-76
2024/03/18 11:10:14;;;;;;;6.90;4.20;;;;;;;;;;106957;1254;62742;-77
2024/03/18 11:12:42;;;;;;;4.80;3.40;;;;;;;;;;106893;1251;62047;-77
2024/03/18 11:15:08;;;;;;;9.30;5.30;;;;;;;;;;106901;1254;62150;-77
2024/03/18 11:17:41;;;;;;;8.60;3.60;;;;;;;;;;106939;1251;60263;-77
2024/03/18 11:20:17;;;;;;;6.50;3.70;;;;;;;;;;106886;1254;62033;-79
2024/03/18 11:23:04;;;;;;;8.10;4.90;;;;;;;;;;106983;1254;62052;-78
2024/03/18 11:25:31;;;;;;;11.90;6.80;;;;;;;;;;106708;1251;62822;-79
2024/03/18 11:27:57;;;;;;;26.90;13.30;;;;;;;;;;106824;1254;62127;-77
2024/03/18 11:30:24;;;;;;;6.40;4.70;;;;;;;;;;106703;1251;62086;-77
2024/03/18 11:32:51;;;;;;;8.30;4.10;;;;;;;;;;106672;1253;62066;-78
2024/03/18 11:35:18;;;;;;;6.70;4.10;;;;;;;;;;106607;1254;62721;-77
2024/03/18 11:37:45;;;;;;;6.10;3.80;;;;;;;;;;106718;1254;62071;-79
2024/03/18 11:40:15;;;;;;;6.70;3.80;;;;;;;;;;107042;1255;62300;-78
2024/03/18 11:42:41;;;;;;;5.70;3.40;;;;;;;;;;106676;1251;61964;-77
2024/03/18 11:45:20;;;;;;;5.50;3.30;;;;;;;;;;106603;1249;62110;-79
2024/03/18 11:47:47;;;;;;;5.20;2.90;;;;;;;;;;107841;1251;62063;-77
2024/03/18 11:50:13;;;;;;;7.80;4.30;;;;;;;;;;106614;1249;61981;-79
2024/03/18 11:52:41;;;;;;;6.60;4.50;;;;;;;;;;106653;1250;62164;-77
2024/03/18 11:55:10;;;;;;;16.70;7.40;;;;;;;;;;106736;1253;62127;-77
2024/03/18 11:57:37;;;;;;;8.80;3.60;;;;;;;;;;106790;1251;62416;-76
2024/03/18 12:00:11;;;;;;;4.70;3.40;;;;;;;;;;106717;1251;62096;-77
2024/03/18 12:02:38;;;;;;;7.50;4.40;;;;;;;;;;106706;1251;63907;-77
2024/03/18 12:05:05;;;;;;;8.90;6.40;;;;;;;;;;106707;1251;62080;-76
2024/03/18 12:07:32;;;;;;;6.00;3.60;;;;;;;;;;106689;1252;62105;-76
2024/03/18 12:09:58;;;;;;;8.50;3.80;;;;;;;;;;107187;1251;62711;-77
2024/03/18 12:12:25;;;;;;;6.80;3.90;;;;;;;;;;106759;1251;62092;-76
2024/03/18 12:14:51;;;;;;;6.20;3.90;;;;;;;;;;106660;1262;61920;-77
2024/03/18 12:17:17;;;;;;;6.20;4.20;;;;;;;;;;106712;1251;62102;-76
2024/03/18 12:19:51;;;;;;;6.90;3.90;;;;;;;;;;106741;1254;63205;-76
2024/03/18 12:22:25;;;;;;;9.70;7.30;;;;;;;;;;107975;1251;62083;-75
2024/03/18 12:30:31;;;;;;;7.50;4.90;;;;;;;;;;106643;1251;62025;-77
2024/03/18 12:32:58;;;;;;;6.60;3.90;;;;;;;;;;106639;1251;62137;-77
2024/03/18 12:35:26;;;;;;;6.20;4.60;;;;;;;;;;106630;1254;62129;-77
2024/03/18 12:37:52;;;;;;;7.60;4.80;;;;;;;;;;106683;1250;62032;-77
2024/03/18 12:40:19;;;;;;;11.20;4.40;;;;;;;;;;106635;1253;61962;-76
2024/03/18 12:42:46;;;;;;;8.50;4.60;;;;;;;;;;106645;1251;62112;-77
2024/03/18 12:45:12;;;;;;;5.80;3.90;;;;;;;;;;106605;1254;62040;-75
2024/03/18 12:47:38;;;;;;;6.10;4.00;;;;;;;;;;107902;1250;61954;-78
2024/03/18 12:50:05;;;;;;;5.90;4.10;;;;;;;;;;106925;1250;62064;-75
2024/03/18 12:52:32;;;;;;;6.20;4.50;;;;;;;;;;106638;1254;62673;-79
2024/03/18 12:54:58;;;;;;;5.60;4.20;;;;;;;;;;106663;1251;62049;-79
2024/03/18 12:57:25;;;;;;;9.40;4.20;;;;;;;;;;106594;1254;62064;-79
2024/03/18 12:59:52;;;;;;;10.30;3.80;;;;;;;;;;106659;1251;62135;-79
2024/03/18 13:02:19;;;;;;;12.90;4.80;;;;;;;;;;106740;1248;62359;-79
2024/03/18 13:04:46;;;;;;;9.80;4.70;;;;;;;;;;106724;1253;62066;-79
2024/03/18 13:07:12;;;;;;;6.30;4.10;;;;;;;;;;106621;1251;61971;-79
2024/03/18 13:09:38;;;;;;;7.00;4.10;;;;;;;;;;106605;1251;62349;-79
2024/03/18 13:12:04;;;;;;;9.30;6.60;;;;;;;;;;106534;1253;61109;-79
2024/03/18 13:14:31;;;;;;;12.30;7.80;;;;;;;;;;106606;1251;62667;-79
2024/03/18 13:16:58;;;;;;;7.60;4.70;;;;;;;;;;106599;1251;62071;-78
2024/03/18 13:19:24;;;;;;;8.40;6.20;;;;;;;;;;106814;1251;62090;-78
2024/03/18 13:21:53;;;;;;;8.90;5.40;;;;;;;;;;106729;1251;62143;-76
2024/03/18 13:24:19;;;;;;;10.40;5.90;;;;;;;;;;106875;1251;62047;-77
2024/03/18 13:26:46;;;;;;;7.80;5.00;;;;;;;;;;106835;1251;62030;-78
2024/03/18 13:29:14;;;;;;;10.00;7.10;;;;;;;;;;106969;1251;63933;-79
2024/03/18 13:31:41;;;;;;;17.70;9.20;;;;;;;;;;106999;1254;62061;-79
2024/03/18 13:34:07;;;;;;;11.00;7.90;;;;;;;;;;106714;1251;62042;-75
2024/03/18 13:36:34;;;;;;;7.00;6.00;;;;;;;;;;106914;1251;62129;-78
2024/03/18 13:39:00;;;;;;;15.50;9.10;;;;;;;;;;106788;1249;61984;-78
2024/03/18 13:41:28;;;;;;;13.00;6.00;;;;;;;;;;107334;1254;63094;-76
2024/03/18 13:43:54;;;;;;;8.00;5.60;;;;;;;;;;106675;1251;60575;-76
2024/03/18 13:46:20;;;;;;;22.90;11.00;;;;;;;;;;106827;1251;62025;-79
2024/03/18 13:48:47;;;;;;;22.70;12.30;;;;;;;;;;106827;1254;62141;-76
2024/03/18 13:51:16;;;;;;;33.50;17.00;;;;;;;;;;106885;1249;62083;-77
2024/03/18 13:53:42;;;;;;;10.30;6.60;;;;;;;;;;106791;1253;62862;-77
2024/03/18 13:56:12;;;;;;;19.80;10.40;;;;;;;;;;106834;1251;61948;-76
2024/03/18 13:58:39;;;;;;;21.10;12.00;;;;;;;;;;106905;1253;61900;-77
2024/03/18 14:01:15;;;;;;;11.10;7.20;;;;;;;;;;106911;1251;62022;-76
2024/03/18 14:03:42;;;;;;;11.00;6.50;;;;;;;;;;106736;1250;62017;-77
2024/03/18 14:06:09;;;;;;;11.50;6.10;;;;;;;;;;106658;1251;61935;-77
2024/03/18 14:08:35;;;;;;;10.70;7.20;;;;;;;;;;106693;1251;62516;-77
2024/03/18 14:11:02;;;;;;;19.70;12.70;;;;;;;;;;106596;1254;62051;-77
2024/03/18 14:13:29;;;;;;;13.60;8.40;;;;;;;;;;106679;1254;62446;-76
2024/03/18 14:15:56;;;;;;;15.30;9.50;;;;;;;;;;106640;1254;62434;-76
2024/03/18 14:18:22;;;;;;;11.90;9.40;;;;;;;;;;107950;1249;62196;-77
2024/03/18 14:20:48;;;;;;;10.40;6.30;;;;;;;;;;106631;1253;61914;-77
2024/03/18 14:23:15;;;;;;;8.90;5.00;;;;;;;;;;106815;1251;62123;-76
2024/03/18 14:25:41;;;;;;;10.30;6.70;;;;;;;;;;106783;1253;62038;-76
2024/03/18 14:28:08;;;;;;;13.30;10.40;;;;;;;;;;106852;1250;62642;-77
2024/03/18 14:30:35;;;;;;;15.40;12.20;;;;;;;;;;106856;1251;61602;-76
2024/03/18 14:33:01;;;;;;;22.80;17.10;;;;;;;;;;106745;1251;62068;-77